sensor_id;sensor_type;location;lat;lon;timestamp;P1;durP1;ratioP1;P2;durP2;ratioP2
28605;SDS011;46498;49.968;7.754;2022-10-17T00:02:54;7.03;;;3.85;;
28605;SDS011;46498;49.968;7.754;2022-10-17T00:07:55;7.25;;;3.97;;
28605;SDS011;46498;49.968;7.754;2022-10-17T00:12:56;5.78;;;4.00;;
28605;SDS011;46498;49.968;7.754;2022-10-17T00:17:57;10.35;;;4.32;;
28605;SDS011;46498;49.968;7.754;2022-10-17T00:22:58;6.30;;;3.87;;
28605;SDS011;46498;49.968;7.754;2022-10-17T00:28:00;9.90;;;3.85;;
28605;SDS011;46498;49.968;7.754;2022-10-17T00:33:01;11.18;;;3.58;;
28605;SDS011;46498;49.968;7.754;2022-10-17T00:38:02;6.43;;;3.10;;
28605;SDS011;46498;49.968;7.754;2022-10-17T00:43:03;7.05;;;4.32;;
28605;SDS011;46498;49.968;7.754;2022-10-17T00:48:04;10.88;;;3.85;;
28605;SDS011;46498;49.968;7.754;2022-10-17T00:53:08;6.45;;;3.72;;
28605;SDS011;46498;49.968;7.754;2022-10-17T00:58:10;10.35;;;4.20;;
28605;SDS011;46498;49.968;7.754;2022-10-17T01:03:11;7.70;;;3.40;;
28605;SDS011;46498;49.968;7.754;2022-10-17T01:08:12;12.98;;;4.05;;
28605;SDS011;46498;49.968;7.754;2022-10-17T01:13:20;8.13;;;4.12;;
28605;SDS011;46498;49.968;7.754;2022-10-17T01:22:15;11.68;;;3.97;;
28605;SDS011;46498;49.968;7.754;2022-10-17T01:28:28;10.15;;;3.60;;
28605;SDS011;46498;49.968;7.754;2022-10-17T01:35:31;10.60;;;3.50;;
28605;SDS011;46498;49.968;7.754;2022-10-17T01:40:55;10.27;;;3.70;;
28605;SDS011;46498;49.968;7.754;2022-10-17T01:46:17;5.47;;;3.65;;
28605;SDS011;46498;49.968;7.754;2022-10-17T01:51:28;9.43;;;3.50;;
28605;SDS011;46498;49.968;7.754;2022-10-17T01:56:34;17.27;;;3.70;;
28605;SDS011;46498;49.968;7.754;2022-10-17T02:01:37;5.57;;;3.58;;
28605;SDS011;46498;49.968;7.754;2022-10-17T02:06:41;13.35;;;4.50;;
28605;SDS011;46498;49.968;7.754;2022-10-17T02:11:51;10.07;;;5.30;;
28605;SDS011;46498;49.968;7.754;2022-10-17T02:17:07;8.88;;;3.85;;
28605;SDS011;46498;49.968;7.754;2022-10-17T02:22:24;10.00;;;4.22;;
28605;SDS011;46498;49.968;7.754;2022-10-17T02:27:43;14.25;;;4.00;;
28605;SDS011;46498;49.968;7.754;2022-10-17T02:32:54;11.68;;;3.40;;
28605;SDS011;46498;49.968;7.754;2022-10-17T02:38:01;9.60;;;3.55;;
28605;SDS011;46498;49.968;7.754;2022-10-17T02:43:06;12.23;;;3.90;;
28605;SDS011;46498;49.968;7.754;2022-10-17T02:48:10;16.40;;;4.10;;
28605;SDS011;46498;49.968;7.754;2022-10-17T02:53:20;8.13;;;4.03;;
28605;SDS011;46498;49.968;7.754;2022-10-17T02:58:31;11.50;;;3.80;;
28605;SDS011;46498;49.968;7.754;2022-10-17T03:03:34;8.13;;;4.20;;
28605;SDS011;46498;49.968;7.754;2022-10-17T03:08:35;10.52;;;4.00;;
28605;SDS011;46498;49.968;7.754;2022-10-17T03:13:37;10.93;;;3.80;;
28605;SDS011;46498;49.968;7.754;2022-10-17T03:18:40;11.02;;;4.53;;
28605;SDS011;46498;49.968;7.754;2022-10-17T03:23:41;10.05;;;4.78;;
28605;SDS011;46498;49.968;7.754;2022-10-17T03:28:42;17.20;;;4.95;;
28605;SDS011;46498;49.968;7.754;2022-10-17T03:33:44;12.35;;;4.37;;
28605;SDS011;46498;49.968;7.754;2022-10-17T03:38:46;13.98;;;4.75;;
28605;SDS011;46498;49.968;7.754;2022-10-17T03:43:47;8.68;;;4.60;;
28605;SDS011;46498;49.968;7.754;2022-10-17T03:48:49;11.30;;;4.03;;
28605;SDS011;46498;49.968;7.754;2022-10-17T03:53:50;12.70;;;4.95;;
28605;SDS011;46498;49.968;7.754;2022-10-17T03:58:51;7.87;;;4.30;;
28605;SDS011;46498;49.968;7.754;2022-10-17T04:03:53;14.73;;;5.10;;
28605;SDS011;46498;49.968;7.754;2022-10-17T04:08:56;9.15;;;4.43;;
28605;SDS011;46498;49.968;7.754;2022-10-17T04:14:08;13.18;;;4.57;;
28605;SDS011;46498;49.968;7.754;2022-10-17T04:19:11;11.73;;;4.62;;
28605;SDS011;46498;49.968;7.754;2022-10-17T04:24:15;8.10;;;4.90;;
28605;SDS011;46498;49.968;7.754;2022-10-17T04:30:57;7.53;;;4.40;;
28605;SDS011;46498;49.968;7.754;2022-10-17T04:36:02;14.32;;;4.68;;
28605;SDS011;46498;49.968;7.754;2022-10-17T04:41:10;9.70;;;4.87;;
28605;SDS011;46498;49.968;7.754;2022-10-17T04:46:13;10.80;;;4.75;;
28605;SDS011;46498;49.968;7.754;2022-10-17T04:51:16;10.15;;;4.68;;
28605;SDS011;46498;49.968;7.754;2022-10-17T04:56:43;12.20;;;5.00;;
28605;SDS011;46498;49.968;7.754;2022-10-17T05:01:44;11.70;;;5.35;;
28605;SDS011;46498;49.968;7.754;2022-10-17T05:06:45;14.73;;;5.32;;
28605;SDS011;46498;49.968;7.754;2022-10-17T05:12:57;10.15;;;5.47;;
28605;SDS011;46498;49.968;7.754;2022-10-17T05:18:01;10.88;;;5.03;;
28605;SDS011;46498;49.968;7.754;2022-10-17T05:23:03;12.40;;;5.78;;
28605;SDS011;46498;49.968;7.754;2022-10-17T05:28:08;16.75;;;5.25;;
28605;SDS011;46498;49.968;7.754;2022-10-17T05:33:13;12.73;;;5.40;;
28605;SDS011;46498;49.968;7.754;2022-10-17T05:38:14;9.65;;;4.60;;
28605;SDS011;46498;49.968;7.754;2022-10-17T05:43:15;9.55;;;4.95;;
28605;SDS011;46498;49.968;7.754;2022-10-17T05:48:18;7.40;;;4.93;;
28605;SDS011;46498;49.968;7.754;2022-10-17T05:53:19;9.07;;;5.85;;
28605;SDS011;46498;49.968;7.754;2022-10-17T05:58:23;13.23;;;5.55;;
28605;SDS011;46498;49.968;7.754;2022-10-17T06:04:00;7.82;;;5.37;;
28605;SDS011;46498;49.968;7.754;2022-10-17T06:09:01;13.05;;;5.10;;
28605;SDS011;46498;49.968;7.754;2022-10-17T06:14:06;16.23;;;5.95;;
28605;SDS011;46498;49.968;7.754;2022-10-17T06:19:10;10.07;;;6.03;;
28605;SDS011;46498;49.968;7.754;2022-10-17T06:24:12;16.58;;;5.37;;
28605;SDS011;46498;49.968;7.754;2022-10-17T06:34:20;13.32;;;4.55;;
28605;SDS011;46498;49.968;7.754;2022-10-17T06:39:22;12.50;;;5.20;;
28605;SDS011;46498;49.968;7.754;2022-10-17T06:44:35;8.13;;;4.65;;
28605;SDS011;46498;49.968;7.754;2022-10-17T06:49:55;7.53;;;4.22;;
28605;SDS011;46498;49.968;7.754;2022-10-17T06:55:09;11.38;;;5.65;;
28605;SDS011;46498;49.968;7.754;2022-10-17T07:01:16;8.07;;;4.40;;
28605;SDS011;46498;49.968;7.754;2022-10-17T07:06:20;7.62;;;4.90;;
28605;SDS011;46498;49.968;7.754;2022-10-17T07:11:24;12.37;;;5.45;;
28605;SDS011;46498;49.968;7.754;2022-10-17T07:16:26;5.45;;;4.10;;
28605;SDS011;46498;49.968;7.754;2022-10-17T07:21:35;8.88;;;4.97;;
28605;SDS011;46498;49.968;7.754;2022-10-17T07:26:41;8.07;;;5.43;;
28605;SDS011;46498;49.968;7.754;2022-10-17T07:31:44;8.73;;;5.20;;
28605;SDS011;46498;49.968;7.754;2022-10-17T07:36:48;9.18;;;4.55;;
28605;SDS011;46498;49.968;7.754;2022-10-17T07:41:51;9.70;;;4.20;;
28605;SDS011;46498;49.968;7.754;2022-10-17T07:46:53;7.30;;;3.62;;
28605;SDS011;46498;49.968;7.754;2022-10-17T07:51:55;6.97;;;3.80;;
28605;SDS011;46498;49.968;7.754;2022-10-17T07:56:56;8.02;;;4.25;;
28605;SDS011;46498;49.968;7.754;2022-10-17T08:01:58;9.27;;;3.58;;
28605;SDS011;46498;49.968;7.754;2022-10-17T08:06:59;8.00;;;3.35;;
28605;SDS011;46498;49.968;7.754;2022-10-17T08:12:22;10.27;;;3.50;;
28605;SDS011;46498;49.968;7.754;2022-10-17T08:17:24;6.62;;;2.72;;
28605;SDS011;46498;49.968;7.754;2022-10-17T08:22:26;8.25;;;3.78;;
28605;SDS011;46498;49.968;7.754;2022-10-17T08:27:28;5.80;;;3.30;;
28605;SDS011;46498;49.968;7.754;2022-10-17T08:32:29;5.57;;;2.97;;
28605;SDS011;46498;49.968;7.754;2022-10-17T08:37:33;6.87;;;2.78;;
28605;SDS011;46498;49.968;7.754;2022-10-17T08:42:42;6.57;;;3.30;;
28605;SDS011;46498;49.968;7.754;2022-10-17T08:48:00;7.80;;;3.35;;
28605;SDS011;46498;49.968;7.754;2022-10-17T08:59:49;4.97;;;2.80;;
28605;SDS011;46498;49.968;7.754;2022-10-17T09:04:56;8.82;;;3.30;;
28605;SDS011;46498;49.968;7.754;2022-10-17T09:10:40;9.38;;;2.87;;
28605;SDS011;46498;49.968;7.754;2022-10-17T09:24:19;11.45;;;2.62;;
28605;SDS011;46498;49.968;7.754;2022-10-17T09:29:32;8.15;;;2.75;;
28605;SDS011;46498;49.968;7.754;2022-10-17T09:34:40;7.53;;;2.97;;
28605;SDS011;46498;49.968;7.754;2022-10-17T09:39:42;10.57;;;2.90;;
28605;SDS011;46498;49.968;7.754;2022-10-17T09:44:54;8.15;;;2.78;;
28605;SDS011;46498;49.968;7.754;2022-10-17T09:51:31;10.77;;;2.83;;
28605;SDS011;46498;49.968;7.754;2022-10-17T09:56:54;11.00;;;2.95;;
28605;SDS011;46498;49.968;7.754;2022-10-17T10:02:08;5.35;;;2.47;;
28605;SDS011;46498;49.968;7.754;2022-10-17T10:07:20;5.28;;;2.78;;
28605;SDS011;46498;49.968;7.754;2022-10-17T10:12:33;5.05;;;2.37;;
28605;SDS011;46498;49.968;7.754;2022-10-17T10:17:40;7.00;;;2.92;;
28605;SDS011;46498;49.968;7.754;2022-10-17T10:22:42;8.90;;;3.10;;
28605;SDS011;46498;49.968;7.754;2022-10-17T10:27:43;8.32;;;2.85;;
28605;SDS011;46498;49.968;7.754;2022-10-17T10:32:46;9.90;;;3.00;;
28605;SDS011;46498;49.968;7.754;2022-10-17T10:37:50;7.87;;;2.58;;
28605;SDS011;46498;49.968;7.754;2022-10-17T10:42:55;7.20;;;2.70;;
28605;SDS011;46498;49.968;7.754;2022-10-17T10:48:17;12.23;;;2.67;;
28605;SDS011;46498;49.968;7.754;2022-10-17T10:53:41;9.20;;;3.20;;
28605;SDS011;46498;49.968;7.754;2022-10-17T10:59:34;8.27;;;2.55;;
28605;SDS011;46498;49.968;7.754;2022-10-17T11:04:46;13.48;;;3.03;;
28605;SDS011;46498;49.968;7.754;2022-10-17T11:15:46;6.93;;;3.20;;
28605;SDS011;46498;49.968;7.754;2022-10-17T11:21:20;9.27;;;2.90;;
28605;SDS011;46498;49.968;7.754;2022-10-17T11:26:30;7.60;;;2.60;;
28605;SDS011;46498;49.968;7.754;2022-10-17T11:31:37;5.68;;;2.70;;
28605;SDS011;46498;49.968;7.754;2022-10-17T11:36:43;6.72;;;3.15;;
28605;SDS011;46498;49.968;7.754;2022-10-17T11:41:52;7.97;;;2.92;;
28605;SDS011;46498;49.968;7.754;2022-10-17T11:54:49;7.22;;;2.97;;
28605;SDS011;46498;49.968;7.754;2022-10-17T12:00:05;9.48;;;2.40;;
28605;SDS011;46498;49.968;7.754;2022-10-17T12:05:47;9.07;;;2.40;;
28605;SDS011;46498;49.968;7.754;2022-10-17T12:11:02;6.07;;;2.67;;
28605;SDS011;46498;49.968;7.754;2022-10-17T12:16:52;8.93;;;2.70;;
28605;SDS011;46498;49.968;7.754;2022-10-17T12:22:04;9.20;;;2.92;;
28605;SDS011;46498;49.968;7.754;2022-10-17T12:33:51;6.20;;;2.72;;
28605;SDS011;46498;49.968;7.754;2022-10-17T12:39:46;8.05;;;2.67;;
28605;SDS011;46498;49.968;7.754;2022-10-17T12:44:47;10.35;;;2.67;;
28605;SDS011;46498;49.968;7.754;2022-10-17T12:49:51;15.02;;;2.87;;
28605;SDS011;46498;49.968;7.754;2022-10-17T12:55:05;7.15;;;3.22;;
28605;SDS011;46498;49.968;7.754;2022-10-17T13:00:51;12.48;;;2.62;;
28605;SDS011;46498;49.968;7.754;2022-10-17T13:06:24;8.73;;;3.08;;
28605;SDS011;46498;49.968;7.754;2022-10-17T13:11:29;7.35;;;2.62;;
28605;SDS011;46498;49.968;7.754;2022-10-17T13:16:34;10.10;;;2.70;;
28605;SDS011;46498;49.968;7.754;2022-10-17T13:21:37;7.65;;;2.92;;
28605;SDS011;46498;49.968;7.754;2022-10-17T13:26:43;15.65;;;3.45;;
28605;SDS011;46498;49.968;7.754;2022-10-17T13:31:45;15.35;;;3.75;;
28605;SDS011;46498;49.968;7.754;2022-10-17T13:37:04;15.13;;;2.78;;
28605;SDS011;46498;49.968;7.754;2022-10-17T13:42:23;8.55;;;3.28;;
28605;SDS011;46498;49.968;7.754;2022-10-17T13:47:29;15.63;;;3.72;;
28605;SDS011;46498;49.968;7.754;2022-10-17T13:52:36;9.20;;;2.30;;
28605;SDS011;46498;49.968;7.754;2022-10-17T13:57:36;9.65;;;2.62;;
28605;SDS011;46498;49.968;7.754;2022-10-17T14:02:39;9.70;;;2.67;;
28605;SDS011;46498;49.968;7.754;2022-10-17T14:07:53;8.05;;;2.60;;
28605;SDS011;46498;49.968;7.754;2022-10-17T14:13:20;9.50;;;2.00;;
28605;SDS011;46498;49.968;7.754;2022-10-17T14:18:24;7.90;;;2.10;;
28605;SDS011;46498;49.968;7.754;2022-10-17T14:23:36;8.50;;;2.33;;
28605;SDS011;46498;49.968;7.754;2022-10-17T14:28:39;8.50;;;2.28;;
28605;SDS011;46498;49.968;7.754;2022-10-17T14:33:46;8.25;;;2.00;;
28605;SDS011;46498;49.968;7.754;2022-10-17T14:38:51;10.82;;;2.47;;
28605;SDS011;46498;49.968;7.754;2022-10-17T14:44:02;9.30;;;2.40;;
28605;SDS011;46498;49.968;7.754;2022-10-17T14:49:07;10.20;;;2.28;;
28605;SDS011;46498;49.968;7.754;2022-10-17T14:54:24;9.60;;;2.35;;
28605;SDS011;46498;49.968;7.754;2022-10-17T14:59:29;8.88;;;2.25;;
28605;SDS011;46498;49.968;7.754;2022-10-17T15:04:54;8.95;;;2.65;;
28605;SDS011;46498;49.968;7.754;2022-10-17T15:09:55;9.68;;;2.08;;
28605;SDS011;46498;49.968;7.754;2022-10-17T15:14:56;8.85;;;2.60;;
28605;SDS011;46498;49.968;7.754;2022-10-17T15:19:57;15.05;;;3.42;;
28605;SDS011;46498;49.968;7.754;2022-10-17T15:24:58;11.40;;;3.30;;
28605;SDS011;46498;49.968;7.754;2022-10-17T15:29:59;11.88;;;3.03;;
28605;SDS011;46498;49.968;7.754;2022-10-17T15:35:00;13.27;;;4.35;;
28605;SDS011;46498;49.968;7.754;2022-10-17T15:40:01;10.98;;;4.18;;
28605;SDS011;46498;49.968;7.754;2022-10-17T15:45:02;9.45;;;3.30;;
28605;SDS011;46498;49.968;7.754;2022-10-17T15:50:04;13.85;;;3.95;;
28605;SDS011;46498;49.968;7.754;2022-10-17T15:55:08;10.43;;;2.62;;
28605;SDS011;46498;49.968;7.754;2022-10-17T16:00:13;9.45;;;2.72;;
28605;SDS011;46498;49.968;7.754;2022-10-17T16:05:18;11.75;;;2.58;;
28605;SDS011;46498;49.968;7.754;2022-10-17T16:10:22;9.45;;;2.58;;
28605;SDS011;46498;49.968;7.754;2022-10-17T16:15:25;16.15;;;3.47;;
28605;SDS011;46498;49.968;7.754;2022-10-17T16:20:27;9.25;;;2.65;;
28605;SDS011;46498;49.968;7.754;2022-10-17T16:25:28;13.18;;;3.00;;
28605;SDS011;46498;49.968;7.754;2022-10-17T16:30:30;16.73;;;3.28;;
28605;SDS011;46498;49.968;7.754;2022-10-17T16:35:32;13.93;;;4.37;;
28605;SDS011;46498;49.968;7.754;2022-10-17T16:40:37;18.87;;;5.30;;
28605;SDS011;46498;49.968;7.754;2022-10-17T16:45:39;12.68;;;3.50;;
28605;SDS011;46498;49.968;7.754;2022-10-17T16:50:40;8.00;;;2.87;;
28605;SDS011;46498;49.968;7.754;2022-10-17T16:55:41;15.38;;;3.37;;
28605;SDS011;46498;49.968;7.754;2022-10-17T17:00:42;12.40;;;3.15;;
28605;SDS011;46498;49.968;7.754;2022-10-17T17:05:48;11.82;;;2.70;;
28605;SDS011;46498;49.968;7.754;2022-10-17T17:10:52;12.57;;;3.53;;
28605;SDS011;46498;49.968;7.754;2022-10-17T17:16:02;8.13;;;2.90;;
28605;SDS011;46498;49.968;7.754;2022-10-17T17:21:08;10.45;;;2.70;;
28605;SDS011;46498;49.968;7.754;2022-10-17T17:26:11;18.83;;;3.12;;
28605;SDS011;46498;49.968;7.754;2022-10-17T17:31:14;16.52;;;3.33;;
28605;SDS011;46498;49.968;7.754;2022-10-17T17:36:18;15.02;;;3.08;;
28605;SDS011;46498;49.968;7.754;2022-10-17T17:41:21;11.93;;;3.53;;
28605;SDS011;46498;49.968;7.754;2022-10-17T17:46:22;16.52;;;3.35;;
28605;SDS011;46498;49.968;7.754;2022-10-17T17:51:25;22.15;;;3.92;;
28605;SDS011;46498;49.968;7.754;2022-10-17T17:56:29;8.23;;;3.30;;
28605;SDS011;46498;49.968;7.754;2022-10-17T18:01:31;10.93;;;3.37;;
28605;SDS011;46498;49.968;7.754;2022-10-17T18:06:37;17.05;;;4.20;;
28605;SDS011;46498;49.968;7.754;2022-10-17T18:11:39;13.15;;;4.03;;
28605;SDS011;46498;49.968;7.754;2022-10-17T18:16:39;12.85;;;4.32;;
28605;SDS011;46498;49.968;7.754;2022-10-17T18:21:41;8.98;;;3.72;;
28605;SDS011;46498;49.968;7.754;2022-10-17T18:26:43;7.70;;;3.33;;
28605;SDS011;46498;49.968;7.754;2022-10-17T18:31:44;11.55;;;3.80;;
28605;SDS011;46498;49.968;7.754;2022-10-17T18:36:45;11.90;;;3.70;;
28605;SDS011;46498;49.968;7.754;2022-10-17T18:41:46;8.68;;;3.58;;
28605;SDS011;46498;49.968;7.754;2022-10-17T18:46:53;11.98;;;4.03;;
28605;SDS011;46498;49.968;7.754;2022-10-17T18:52:04;18.45;;;3.97;;
28605;SDS011;46498;49.968;7.754;2022-10-17T18:57:05;14.95;;;4.47;;
28605;SDS011;46498;49.968;7.754;2022-10-17T19:02:06;17.52;;;4.18;;
28605;SDS011;46498;49.968;7.754;2022-10-17T19:07:09;9.75;;;4.00;;
28605;SDS011;46498;49.968;7.754;2022-10-17T19:12:10;12.65;;;3.87;;
28605;SDS011;46498;49.968;7.754;2022-10-17T19:17:11;8.98;;;3.97;;
28605;SDS011;46498;49.968;7.754;2022-10-17T19:22:12;22.50;;;5.25;;
28605;SDS011;46498;49.968;7.754;2022-10-17T19:27:12;14.85;;;4.90;;
28605;SDS011;46498;49.968;7.754;2022-10-17T19:32:13;19.25;;;4.72;;
28605;SDS011;46498;49.968;7.754;2022-10-17T19:37:21;9.45;;;3.97;;
28605;SDS011;46498;49.968;7.754;2022-10-17T19:42:22;13.40;;;3.87;;
28605;SDS011;46498;49.968;7.754;2022-10-17T19:47:23;9.38;;;3.50;;
28605;SDS011;46498;49.968;7.754;2022-10-17T19:52:24;11.07;;;4.43;;
28605;SDS011;46498;49.968;7.754;2022-10-17T19:57:25;15.38;;;3.90;;
28605;SDS011;46498;49.968;7.754;2022-10-17T20:02:26;12.13;;;3.80;;
28605;SDS011;46498;49.968;7.754;2022-10-17T20:07:26;7.62;;;4.00;;
28605;SDS011;46498;49.968;7.754;2022-10-17T20:12:27;11.45;;;3.70;;
28605;SDS011;46498;49.968;7.754;2022-10-17T20:17:28;18.70;;;4.28;;
28605;SDS011;46498;49.968;7.754;2022-10-17T20:22:29;13.57;;;4.03;;
28605;SDS011;46498;49.968;7.754;2022-10-17T20:27:31;11.45;;;3.40;;
28605;SDS011;46498;49.968;7.754;2022-10-17T20:32:32;14.27;;;4.12;;
28605;SDS011;46498;49.968;7.754;2022-10-17T20:37:35;15.60;;;4.43;;
28605;SDS011;46498;49.968;7.754;2022-10-17T20:42:43;9.00;;;3.95;;
28605;SDS011;46498;49.968;7.754;2022-10-17T20:47:48;10.30;;;3.57;;
28605;SDS011;46498;49.968;7.754;2022-10-17T20:52:52;12.82;;;4.37;;
28605;SDS011;46498;49.968;7.754;2022-10-17T20:58:25;9.75;;;4.30;;
28605;SDS011;46498;49.968;7.754;2022-10-17T21:03:25;13.93;;;4.37;;
28605;SDS011;46498;49.968;7.754;2022-10-17T21:08:27;10.55;;;4.12;;
28605;SDS011;46498;49.968;7.754;2022-10-17T21:13:27;8.57;;;4.43;;
28605;SDS011;46498;49.968;7.754;2022-10-17T21:18:28;9.98;;;4.57;;
28605;SDS011;46498;49.968;7.754;2022-10-17T21:23:29;18.65;;;4.68;;
28605;SDS011;46498;49.968;7.754;2022-10-17T21:28:30;8.13;;;4.03;;
28605;SDS011;46498;49.968;7.754;2022-10-17T21:33:31;12.57;;;4.40;;
28605;SDS011;46498;49.968;7.754;2022-10-17T21:38:39;15.18;;;4.57;;
28605;SDS011;46498;49.968;7.754;2022-10-17T21:43:40;12.32;;;5.07;;
28605;SDS011;46498;49.968;7.754;2022-10-17T21:48:42;19.95;;;4.82;;
28605;SDS011;46498;49.968;7.754;2022-10-17T21:53:43;10.73;;;4.72;;
28605;SDS011;46498;49.968;7.754;2022-10-17T21:58:45;13.07;;;4.17;;
28605;SDS011;46498;49.968;7.754;2022-10-17T22:03:48;11.50;;;4.72;;
28605;SDS011;46498;49.968;7.754;2022-10-17T22:08:51;16.77;;;4.12;;
28605;SDS011;46498;49.968;7.754;2022-10-17T22:13:53;16.83;;;4.55;;
28605;SDS011;46498;49.968;7.754;2022-10-17T22:19:01;17.40;;;4.80;;
28605;SDS011;46498;49.968;7.754;2022-10-17T22:24:08;10.13;;;4.57;;
28605;SDS011;46498;49.968;7.754;2022-10-17T22:29:11;10.18;;;4.43;;
28605;SDS011;46498;49.968;7.754;2022-10-17T22:34:13;14.70;;;4.53;;
28605;SDS011;46498;49.968;7.754;2022-10-17T22:39:15;7.82;;;4.72;;
28605;SDS011;46498;49.968;7.754;2022-10-17T22:44:16;8.45;;;4.00;;
28605;SDS011;46498;49.968;7.754;2022-10-17T22:49:17;11.82;;;4.65;;
28605;SDS011;46498;49.968;7.754;2022-10-17T22:54:17;19.83;;;4.60;;
28605;SDS011;46498;49.968;7.754;2022-10-17T22:59:19;12.80;;;4.70;;
28605;SDS011;46498;49.968;7.754;2022-10-17T23:04:19;38.05;;;5.62;;
28605;SDS011;46498;49.968;7.754;2022-10-17T23:09:20;14.95;;;5.00;;
28605;SDS011;46498;49.968;7.754;2022-10-17T23:14:21;15.40;;;4.20;;
28605;SDS011;46498;49.968;7.754;2022-10-17T23:19:22;13.07;;;4.50;;
28605;SDS011;46498;49.968;7.754;2022-10-17T23:24:23;21.23;;;6.30;;
28605;SDS011;46498;49.968;7.754;2022-10-17T23:29:24;10.00;;;4.62;;
28605;SDS011;46498;49.968;7.754;2022-10-17T23:34:25;16.15;;;5.05;;
28605;SDS011;46498;49.968;7.754;2022-10-17T23:39:27;21.60;;;5.63;;
28605;SDS011;46498;49.968;7.754;2022-10-17T23:44:28;21.20;;;4.93;;
28605;SDS011;46498;49.968;7.754;2022-10-17T23:49:29;12.20;;;5.60;;
28605;SDS011;46498;49.968;7.754;2022-10-17T23:54:30;18.90;;;5.25;;
28605;SDS011;46498;49.968;7.754;2022-10-17T23:59:31;14.32;;;5.43;;
